createdAt,value
2022-10-31T00:01:57.489Z,11.23
2022-10-31T00:04:25.852Z,10.70
2022-10-31T00:06:54.175Z,10.77
2022-10-31T00:09:24.077Z,10.52
2022-10-31T00:11:52.382Z,10.48
2022-10-31T00:14:20.749Z,10.63
2022-10-31T00:16:49.134Z,10.52
2022-10-31T00:19:17.536Z,10.82
2022-10-31T00:21:45.860Z,10.90
2022-10-31T00:24:14.221Z,11.98
2022-10-31T00:26:43.902Z,10.60
2022-10-31T00:29:13.868Z,10.55
2022-10-31T00:31:42.207Z,9.82
2022-10-31T00:34:10.562Z,10.32
2022-10-31T00:36:38.898Z,9.95
2022-10-31T00:39:07.331Z,10.93
2022-10-31T00:41:35.663Z,9.88
2022-10-31T00:44:05.431Z,9.75
2022-10-31T00:46:33.774Z,9.95
2022-10-31T00:49:02.116Z,10.55
2022-10-31T00:51:30.445Z,9.43
2022-10-31T00:53:58.787Z,10.10
2022-10-31T00:56:27.095Z,10.90
2022-10-31T00:58:55.441Z,9.93
2022-10-31T01:01:25.308Z,9.95
2022-10-31T01:03:53.852Z,9.43
2022-10-31T01:06:22.244Z,10.48
2022-10-31T01:08:50.645Z,9.73
2022-10-31T01:11:19.961Z,10.70
2022-10-31T01:13:48.730Z,9.60
2022-10-31T01:16:18.297Z,9.60
2022-10-31T01:18:48.361Z,9.82
2022-10-31T01:21:17.452Z,10.30
2022-10-31T01:23:45.895Z,9.57
2022-10-31T01:26:15.220Z,10.95
2022-10-31T01:28:46.727Z,10.25
2022-10-31T01:31:15.149Z,10.20
2022-10-31T01:33:43.906Z,10.30
2022-10-31T01:36:21.065Z,10.50
2022-10-31T01:38:49.957Z,11.00
2022-10-31T01:41:19.677Z,10.77
2022-10-31T01:43:49.303Z,10.07
2022-10-31T01:46:20.024Z,10.35
2022-10-31T01:48:48.532Z,10.05
2022-10-31T01:51:17.457Z,10.98
2022-10-31T01:53:47.673Z,11.82
2022-10-31T01:56:17.248Z,11.88
2022-10-31T01:58:47.010Z,13.13
2022-10-31T02:01:15.873Z,13.10
2022-10-31T02:03:44.455Z,13.57
2022-10-31T02:06:16.581Z,13.27
2022-10-31T02:08:45.357Z,13.60
2022-10-31T02:11:15.382Z,11.95
2022-10-31T02:13:43.753Z,13.93
2022-10-31T02:16:12.473Z,13.55
2022-10-31T02:18:40.853Z,12.68
2022-10-31T02:21:14.267Z,13.60
2022-10-31T02:23:58.434Z,13.00
2022-10-31T02:26:45.582Z,11.77
2022-10-31T02:29:29.770Z,11.07
2022-10-31T02:32:03.357Z,10.98
2022-10-31T02:34:35.408Z,11.07
2022-10-31T02:37:09.670Z,10.88
2022-10-31T02:39:40.265Z,10.20
2022-10-31T02:42:11.834Z,11.27
2022-10-31T02:44:42.210Z,11.07
2022-10-31T02:47:14.990Z,11.00
2022-10-31T02:49:48.757Z,11.70
2022-10-31T02:52:20.435Z,10.52
2022-10-31T02:54:49.384Z,11.75
2022-10-31T02:57:18.804Z,10.63
2022-10-31T02:59:49.769Z,11.75
2022-10-31T03:02:35.352Z,11.25
2022-10-31T03:05:17.450Z,10.23
2022-10-31T03:07:50.407Z,11.65
2022-10-31T03:10:22.856Z,11.18
2022-10-31T03:12:53.840Z,11.27
2022-10-31T03:15:24.213Z,11.02
2022-10-31T03:17:58.080Z,11.10
2022-10-31T03:20:29.352Z,10.52
2022-10-31T03:22:58.156Z,11.10
2022-10-31T03:25:26.727Z,10.82
2022-10-31T03:27:55.223Z,11.05
2022-10-31T03:30:23.550Z,11.27
2022-10-31T03:32:53.328Z,10.07
2022-10-31T03:35:25.889Z,10.60
2022-10-31T03:37:55.675Z,10.30
2022-10-31T03:40:26.666Z,11.00
2022-10-31T03:42:57.877Z,10.55
2022-10-31T03:45:27.458Z,10.70
2022-10-31T03:47:56.205Z,10.63
2022-10-31T03:50:27.705Z,9.68
2022-10-31T03:52:58.765Z,9.77
2022-10-31T03:55:29.378Z,10.32
2022-10-31T03:58:00.291Z,11.23
2022-10-31T04:00:28.925Z,10.35
2022-10-31T04:03:00.617Z,11.30
2022-10-31T04:05:31.449Z,11.70
2022-10-31T04:08:01.298Z,11.25
2022-10-31T04:10:33.094Z,10.40
2022-10-31T04:13:04.307Z,10.60
2022-10-31T04:15:33.990Z,10.88
2022-10-31T04:18:03.321Z,9.48
2022-10-31T04:20:34.487Z,10.45
2022-10-31T04:23:03.351Z,10.75
2022-10-31T04:25:32.019Z,9.98
2022-10-31T04:28:00.685Z,9.82
2022-10-31T04:30:29.330Z,10.65
2022-10-31T04:32:57.875Z,10.40
2022-10-31T04:35:26.750Z,11.35
2022-10-31T04:37:56.466Z,10.65
2022-10-31T04:40:24.787Z,10.27
2022-10-31T04:42:53.120Z,10.23
2022-10-31T04:45:21.606Z,11.32
2022-10-31T04:47:50.152Z,12.15
2022-10-31T04:50:18.617Z,11.77
2022-10-31T04:52:47.657Z,13.00
2022-10-31T04:55:17.480Z,11.77
2022-10-31T04:57:45.936Z,10.80
2022-10-31T05:00:15.125Z,11.98
2022-10-31T05:02:47.290Z,11.13
2022-10-31T05:05:15.873Z,10.93
2022-10-31T05:07:45.181Z,11.32
2022-10-31T05:10:15.165Z,11.43
2022-10-31T05:12:49.893Z,10.82
2022-10-31T05:15:18.802Z,10.95
2022-10-31T05:17:47.137Z,10.52
2022-10-31T05:20:16.092Z,10.10
2022-10-31T05:22:45.599Z,10.80
2022-10-31T05:25:13.922Z,10.98
2022-10-31T05:27:42.652Z,12.05
2022-10-31T05:30:13.709Z,11.38
2022-10-31T05:32:42.446Z,11.60
2022-10-31T05:35:11.238Z,11.18
2022-10-31T05:37:39.786Z,10.52
2022-10-31T05:40:09.766Z,10.70
2022-10-31T05:42:38.208Z,11.38
2022-10-31T05:45:07.155Z,10.57
2022-10-31T05:47:36.851Z,11.15
2022-10-31T05:50:05.334Z,11.25
2022-10-31T05:52:33.701Z,10.93
2022-10-31T05:55:02.081Z,11.85
2022-10-31T05:57:30.906Z,11.25
2022-10-31T05:59:59.218Z,11.23
2022-10-31T06:02:27.795Z,11.95
2022-10-31T06:04:57.553Z,10.50
2022-10-31T06:07:25.933Z,10.50
2022-10-31T06:09:54.585Z,11.07
2022-10-31T06:12:22.926Z,10.35
2022-10-31T06:14:51.222Z,10.70
2022-10-31T06:17:19.564Z,9.60
2022-10-31T06:19:47.866Z,10.70
2022-10-31T06:22:17.588Z,11.07
2022-10-31T06:24:45.909Z,11.05
2022-10-31T06:27:14.227Z,10.40
2022-10-31T06:29:42.701Z,10.38
2022-10-31T06:32:13.275Z,11.05
2022-10-31T06:34:41.782Z,9.65
2022-10-31T06:37:10.115Z,11.52
2022-10-31T06:39:39.813Z,11.50
2022-10-31T06:42:08.220Z,11.23
2022-10-31T06:44:36.534Z,11.45
2022-10-31T06:47:04.898Z,10.73
2022-10-31T06:49:33.200Z,10.88
2022-10-31T06:52:01.555Z,10.93
2022-10-31T06:54:29.886Z,11.93
2022-10-31T06:56:59.599Z,11.48
2022-10-31T06:59:27.902Z,11.27
2022-10-31T07:01:56.337Z,11.38
2022-10-31T07:04:25.390Z,10.70
2022-10-31T07:06:54.018Z,12.32
2022-10-31T07:09:22.469Z,10.90
2022-10-31T07:11:50.797Z,12.35
2022-10-31T07:14:20.487Z,12.55
2022-10-31T07:16:50.957Z,12.50
2022-10-31T07:19:19.352Z,12.50
2022-10-31T07:21:47.757Z,11.80
2022-10-31T07:24:16.243Z,10.63
2022-10-31T07:26:46.939Z,12.05
2022-10-31T07:29:15.336Z,11.23
2022-10-31T07:31:45.181Z,10.07
2022-10-31T07:34:13.564Z,10.80
2022-10-31T07:36:41.880Z,10.95
2022-10-31T07:39:10.214Z,10.65
2022-10-31T07:41:38.564Z,10.32
2022-10-31T07:44:07.118Z,9.90
2022-10-31T07:46:35.458Z,10.57
2022-10-31T07:49:05.252Z,10.23
2022-10-31T07:51:33.544Z,10.40
2022-10-31T07:54:02.181Z,11.13
2022-10-31T07:56:30.486Z,10.40
2022-10-31T07:58:58.916Z,10.88
2022-10-31T08:01:27.278Z,11.55
2022-10-31T08:03:55.711Z,12.00
2022-10-31T08:06:25.479Z,11.10
2022-10-31T08:08:53.824Z,11.23
2022-10-31T08:11:22.188Z,11.40
2022-10-31T08:13:50.588Z,11.35
2022-10-31T08:16:18.936Z,11.90
2022-10-31T08:18:47.285Z,11.57
2022-10-31T08:21:15.595Z,12.25
2022-10-31T08:23:45.322Z,12.27
2022-10-31T08:26:13.884Z,12.30
2022-10-31T08:28:42.240Z,12.05
2022-10-31T08:31:11.162Z,13.77
2022-10-31T08:33:39.739Z,12.90
2022-10-31T08:36:08.482Z,11.93
2022-10-31T08:38:37.219Z,11.82
2022-10-31T08:41:07.307Z,12.98
2022-10-31T08:43:35.788Z,11.93
2022-10-31T08:46:04.473Z,11.95
2022-10-31T08:48:33.188Z,12.63
2022-10-31T08:51:02.567Z,13.05
2022-10-31T08:53:30.876Z,14.18
2022-10-31T08:55:59.224Z,14.88
2022-10-31T08:58:29.006Z,13.60
2022-10-31T09:00:59.326Z,14.50
2022-10-31T09:03:31.506Z,14.82
2022-10-31T09:06:00.946Z,15.65
2022-10-31T09:08:29.640Z,14.95
2022-10-31T09:10:59.118Z,13.52
2022-10-31T09:13:32.164Z,15.77
2022-10-31T09:16:00.863Z,15.20
2022-10-31T09:18:29.975Z,13.52
2022-10-31T09:21:00.394Z,14.75
2022-10-31T09:23:28.784Z,14.73
2022-10-31T09:25:57.957Z,14.20
2022-10-31T09:28:26.658Z,14.25
2022-10-31T09:30:56.620Z,14.25
2022-10-31T09:33:26.293Z,14.80
2022-10-31T09:35:54.837Z,13.82
2022-10-31T09:38:24.450Z,14.15
2022-10-31T09:40:58.202Z,14.32
2022-10-31T09:43:30.236Z,14.88
2022-10-31T09:46:03.528Z,13.13
2022-10-31T09:48:38.717Z,13.23
2022-10-31T09:51:08.788Z,13.73
2022-10-31T09:53:41.220Z,14.68
2022-10-31T09:56:11.232Z,13.48
2022-10-31T09:58:42.548Z,14.98
2022-10-31T10:01:19.819Z,14.07
2022-10-31T10:03:50.349Z,12.20
2022-10-31T10:06:21.767Z,15.00
2022-10-31T10:08:50.604Z,14.90
2022-10-31T10:11:25.879Z,14.10
2022-10-31T10:14:00.809Z,15.65
2022-10-31T10:16:38.295Z,15.73
2022-10-31T10:19:15.374Z,15.63
2022-10-31T10:21:48.291Z,16.40
2022-10-31T10:24:23.099Z,16.02
2022-10-31T10:26:57.406Z,14.70
2022-10-31T10:29:32.691Z,16.50
2022-10-31T10:32:04.058Z,15.32
2022-10-31T10:34:36.806Z,17.15
2022-10-31T10:37:07.432Z,15.93
2022-10-31T10:39:37.901Z,15.85
2022-10-31T10:42:28.211Z,15.82
2022-10-31T10:45:14.023Z,16.88
2022-10-31T10:47:45.006Z,14.82
2022-10-31T10:50:16.890Z,15.60
2022-10-31T10:52:50.756Z,15.43
2022-10-31T10:55:25.244Z,15.65
2022-10-31T10:57:58.699Z,16.67
2022-10-31T11:00:28.562Z,16.13
2022-10-31T11:02:58.562Z,14.88
2022-10-31T11:05:28.891Z,14.90
2022-10-31T11:07:57.849Z,15.88
2022-10-31T11:10:26.782Z,16.98
2022-10-31T11:13:03.755Z,15.55
2022-10-31T11:15:34.315Z,14.60
2022-10-31T11:18:04.418Z,15.52
2022-10-31T11:20:35.754Z,13.45
2022-10-31T11:23:08.536Z,16.67
2022-10-31T11:25:37.279Z,13.50
2022-10-31T11:28:07.017Z,14.02
2022-10-31T11:30:38.978Z,14.63
2022-10-31T11:33:08.903Z,14.57
2022-10-31T11:35:42.283Z,13.80
2022-10-31T11:38:11.071Z,13.50
2022-10-31T11:40:39.617Z,14.23
2022-10-31T11:43:08.149Z,14.43
2022-10-31T11:45:37.844Z,12.82
2022-10-31T11:48:17.265Z,12.27
2022-10-31T11:50:52.174Z,13.40
2022-10-31T11:53:23.416Z,12.60
2022-10-31T11:56:02.794Z,12.25
2022-10-31T11:58:31.230Z,11.27
2022-10-31T12:01:00.541Z,12.35
2022-10-31T12:03:43.756Z,11.52
2022-10-31T12:06:16.185Z,10.43
2022-10-31T12:08:44.929Z,10.25
2022-10-31T12:11:17.136Z,10.10
2022-10-31T12:13:52.391Z,10.85
2022-10-31T12:16:23.512Z,10.73
2022-10-31T12:18:59.276Z,9.02
2022-10-31T12:21:37.020Z,9.45
2022-10-31T12:24:10.994Z,9.15
2022-10-31T12:26:46.898Z,9.38
2022-10-31T12:29:22.905Z,9.32
2022-10-31T12:31:57.029Z,9.27
2022-10-31T12:34:49.198Z,9.40
2022-10-31T12:37:24.020Z,8.65
2022-10-31T12:39:55.994Z,8.75
2022-10-31T12:42:31.536Z,8.45
2022-10-31T12:45:07.194Z,8.25
2022-10-31T12:47:42.709Z,8.80
2022-10-31T12:50:36.104Z,8.32
2022-10-31T12:53:13.433Z,8.07
2022-10-31T12:55:45.378Z,8.20
2022-10-31T12:58:17.198Z,8.50
2022-10-31T13:00:47.490Z,9.18
2022-10-31T13:03:24.532Z,8.15
2022-10-31T13:05:56.250Z,7.30
2022-10-31T13:08:29.022Z,8.60
2022-10-31T13:11:04.244Z,9.00
2022-10-31T13:13:35.841Z,8.05
2022-10-31T13:16:07.088Z,7.53
2022-10-31T13:18:38.006Z,7.88
2022-10-31T13:21:09.178Z,7.05
2022-10-31T13:23:55.527Z,7.07
2022-10-31T13:26:26.717Z,7.35
2022-10-31T13:28:58.930Z,7.53
2022-10-31T13:31:27.298Z,7.65
2022-10-31T13:33:57.479Z,7.18
2022-10-31T13:36:29.007Z,6.70
2022-10-31T13:39:00.470Z,6.70
2022-10-31T13:41:39.810Z,6.00
2022-10-31T13:44:19.055Z,6.38
2022-10-31T13:46:48.117Z,5.40
2022-10-31T13:49:40.358Z,5.13
2022-10-31T13:52:15.755Z,4.50
2022-10-31T13:54:46.574Z,4.80
2022-10-31T13:57:19.914Z,4.45
2022-10-31T13:59:53.465Z,4.22
2022-10-31T14:02:24.759Z,4.70
2022-10-31T14:07:28.796Z,4.57
2022-10-31T14:10:00.052Z,4.72
2022-10-31T14:12:31.783Z,4.18
2022-10-31T14:15:01.817Z,5.28
2022-10-31T14:17:33.993Z,4.20
2022-10-31T14:20:04.012Z,4.63
2022-10-31T14:22:35.336Z,4.65
2022-10-31T14:25:20.587Z,4.40
2022-10-31T14:27:50.313Z,4.63
2022-10-31T14:30:20.384Z,4.25
2022-10-31T14:32:52.640Z,4.60
2022-10-31T14:35:22.821Z,4.28
2022-10-31T14:38:02.707Z,4.72
2022-10-31T14:40:36.280Z,4.05
2022-10-31T14:43:17.613Z,4.30
2022-10-31T14:45:49.749Z,3.80
2022-10-31T14:48:27.297Z,4.57
2022-10-31T14:50:56.316Z,4.60
2022-10-31T14:53:26.120Z,4.60
2022-10-31T14:55:56.079Z,4.07
2022-10-31T14:58:27.293Z,4.57
2022-10-31T15:00:57.135Z,4.30
2022-10-31T15:03:27.512Z,4.47
2022-10-31T15:05:57.238Z,4.47
2022-10-31T15:08:29.817Z,4.32
2022-10-31T15:10:58.259Z,4.63
2022-10-31T15:13:27.961Z,4.72
2022-10-31T15:15:58.202Z,4.00
2022-10-31T15:18:27.741Z,4.32
2022-10-31T15:20:57.156Z,4.10
2022-10-31T15:23:27.553Z,4.22
2022-10-31T15:26:02.683Z,4.10
2022-10-31T15:28:32.841Z,4.50
2022-10-31T15:31:02.178Z,4.88
2022-10-31T15:33:37.594Z,4.13
2022-10-31T15:36:06.941Z,4.40
2022-10-31T15:38:35.431Z,4.28
2022-10-31T15:41:04.887Z,4.32
2022-10-31T15:43:36.816Z,4.93
2022-10-31T15:46:07.098Z,3.92
2022-10-31T15:48:35.986Z,4.30
2022-10-31T15:51:05.940Z,4.68
2022-10-31T15:53:38.368Z,4.20
2022-10-31T15:56:08.302Z,4.20
2022-10-31T15:58:44.562Z,4.70
2022-10-31T16:01:22.906Z,5.15
2022-10-31T16:04:00.654Z,4.13
2022-10-31T16:06:29.013Z,4.90
2022-10-31T16:08:57.330Z,4.78
2022-10-31T16:11:27.507Z,4.63
2022-10-31T16:13:58.831Z,4.43
2022-10-31T16:16:36.405Z,4.40
2022-10-31T16:19:06.243Z,3.97
2022-10-31T16:21:36.279Z,3.88
2022-10-31T16:24:07.368Z,4.05
2022-10-31T16:26:36.535Z,3.97
2022-10-31T16:29:06.453Z,4.03
2022-10-31T16:31:39.536Z,4.22
2022-10-31T16:34:13.229Z,4.18
2022-10-31T16:36:41.592Z,4.60
2022-10-31T16:39:11.079Z,4.57
2022-10-31T16:41:41.876Z,4.35
2022-10-31T16:44:18.093Z,4.20
2022-10-31T16:46:46.775Z,4.07
2022-10-31T16:49:16.386Z,3.97
2022-10-31T16:51:45.154Z,4.70
2022-10-31T16:54:13.845Z,4.63
2022-10-31T16:56:42.211Z,6.32
2022-10-31T16:59:16.305Z,4.90
2022-10-31T17:01:49.568Z,4.72
2022-10-31T17:04:18.076Z,4.38
2022-10-31T17:06:47.638Z,5.10
2022-10-31T17:09:15.960Z,5.25
2022-10-31T17:11:49.430Z,4.93
2022-10-31T17:14:18.643Z,4.72
2022-10-31T17:16:48.360Z,4.88
2022-10-31T17:19:16.664Z,5.63
2022-10-31T17:21:45.098Z,5.05
2022-10-31T17:24:14.659Z,5.32
2022-10-31T17:26:43.314Z,5.85
2022-10-31T17:29:12.071Z,5.95
2022-10-31T17:31:40.579Z,5.10
2022-10-31T17:34:10.947Z,5.78
2022-10-31T17:36:39.309Z,9.18
2022-10-31T17:39:09.612Z,10.68
2022-10-31T17:41:37.984Z,35.40
2022-10-31T17:44:06.516Z,26.02
2022-10-31T17:46:34.946Z,22.70
2022-10-31T17:49:05.016Z,27.98
2022-10-31T17:51:34.846Z,42.17
2022-10-31T17:54:03.349Z,34.17
2022-10-31T17:56:31.699Z,19.27
2022-10-31T17:59:00.122Z,11.40
2022-10-31T18:01:28.631Z,9.10
2022-10-31T18:03:57.071Z,10.95
2022-10-31T18:06:25.399Z,7.18
2022-10-31T18:08:57.873Z,7.60
2022-10-31T18:11:26.211Z,7.75
2022-10-31T18:13:56.638Z,7.20
2022-10-31T18:16:25.350Z,5.75
2022-10-31T18:18:54.018Z,5.60
2022-10-31T18:21:22.660Z,6.38
2022-10-31T18:23:55.184Z,4.65
2022-10-31T18:26:25.653Z,4.68
2022-10-31T18:28:54.315Z,4.53
2022-10-31T18:31:22.927Z,4.45
2022-10-31T18:33:54.242Z,3.75
2022-10-31T18:36:22.677Z,5.25
2022-10-31T18:38:50.996Z,4.10
2022-10-31T18:41:19.396Z,4.03
2022-10-31T18:43:49.171Z,4.15
2022-10-31T18:46:18.669Z,3.70
2022-10-31T18:48:47.206Z,3.40
2022-10-31T18:51:18.297Z,3.75
2022-10-31T18:53:51.999Z,4.13
2022-10-31T18:56:20.598Z,3.55
2022-10-31T18:58:50.508Z,3.60
2022-10-31T19:01:19.616Z,3.60
2022-10-31T19:03:48.019Z,3.78
2022-10-31T19:06:16.401Z,4.18
2022-10-31T19:08:45.017Z,4.00
2022-10-31T19:11:14.264Z,3.90
2022-10-31T19:13:43.259Z,3.95
2022-10-31T19:16:14.014Z,4.18
2022-10-31T19:18:42.921Z,4.03
2022-10-31T19:21:12.521Z,4.07
2022-10-31T19:23:40.950Z,4.25
2022-10-31T19:26:09.782Z,4.20
2022-10-31T19:28:39.393Z,4.03
2022-10-31T19:31:08.078Z,3.67
2022-10-31T19:33:37.826Z,4.18
2022-10-31T19:36:09.595Z,3.95
2022-10-31T19:38:38.546Z,4.10
2022-10-31T19:41:08.024Z,3.75
2022-10-31T19:43:36.349Z,3.53
2022-10-31T19:46:05.050Z,4.43
2022-10-31T19:48:33.657Z,4.53
2022-10-31T19:51:04.242Z,3.88
2022-10-31T19:53:33.046Z,4.25
2022-10-31T19:56:01.764Z,4.38
2022-10-31T19:58:30.503Z,3.97
2022-10-31T20:03:32.102Z,4.47
2022-10-31T20:06:00.485Z,3.25
2022-10-31T20:08:30.200Z,4.38
2022-10-31T20:10:59.631Z,4.03
2022-10-31T20:13:29.427Z,3.90
2022-10-31T20:16:00.619Z,4.63
2022-10-31T20:18:29.609Z,3.83
2022-10-31T20:21:04.882Z,4.15
2022-10-31T20:23:35.490Z,3.72
2022-10-31T20:26:04.022Z,4.47
2022-10-31T20:28:32.924Z,4.32
2022-10-31T20:31:01.647Z,3.60
2022-10-31T20:33:30.009Z,4.35
2022-10-31T20:35:58.538Z,4.00
2022-10-31T20:38:26.889Z,4.10
2022-10-31T20:41:00.867Z,3.78
2022-10-31T20:43:29.335Z,4.38
2022-10-31T20:46:01.535Z,4.60
2022-10-31T20:48:30.214Z,4.13
2022-10-31T20:50:59.453Z,4.15
2022-10-31T20:53:28.017Z,3.58
2022-10-31T20:56:07.099Z,3.85
2022-10-31T20:58:36.672Z,4.05
2022-10-31T21:01:05.591Z,4.20
2022-10-31T21:03:36.468Z,3.55
2022-10-31T21:06:05.480Z,3.95
2022-10-31T21:08:34.418Z,3.55
2022-10-31T21:11:07.482Z,4.35
2022-10-31T21:13:40.555Z,3.83
2022-10-31T21:16:10.529Z,4.38
2022-10-31T21:18:39.284Z,4.38
2022-10-31T21:21:09.898Z,4.13
2022-10-31T21:23:38.362Z,4.15
2022-10-31T21:26:09.353Z,4.18
2022-10-31T21:28:37.789Z,3.95
2022-10-31T21:31:09.526Z,4.07
2022-10-31T21:33:38.138Z,3.58
2022-10-31T21:36:07.314Z,4.05
2022-10-31T21:38:36.300Z,4.43
2022-10-31T21:41:06.011Z,3.75
2022-10-31T21:43:36.732Z,3.83
2022-10-31T21:46:05.815Z,4.15
2022-10-31T21:48:34.225Z,3.92
2022-10-31T21:51:04.491Z,3.90
2022-10-31T21:53:50.641Z,3.92
2022-10-31T21:56:19.353Z,4.20
2022-10-31T21:58:49.628Z,4.10
2022-10-31T22:01:18.154Z,4.13
2022-10-31T22:03:46.586Z,4.03
2022-10-31T22:06:15.522Z,3.90
2022-10-31T22:08:47.225Z,4.47
2022-10-31T22:11:16.390Z,3.40
2022-10-31T22:13:45.636Z,4.10
2022-10-31T22:16:16.483Z,4.20
2022-10-31T22:18:45.372Z,4.13
2022-10-31T22:21:15.383Z,4.05
2022-10-31T22:23:44.133Z,4.35
2022-10-31T22:26:14.436Z,4.68
2022-10-31T22:28:43.374Z,4.22
2022-10-31T22:31:13.306Z,4.10
2022-10-31T22:33:43.085Z,3.95
2022-10-31T22:36:12.440Z,4.05
2022-10-31T22:38:41.372Z,3.70
2022-10-31T22:41:10.427Z,4.00
2022-10-31T22:43:39.366Z,4.07
2022-10-31T22:46:08.829Z,4.20
2022-10-31T22:48:39.499Z,3.95
2022-10-31T22:51:10.124Z,5.07
2022-10-31T22:53:39.151Z,4.40
2022-10-31T22:56:08.519Z,4.57
2022-10-31T22:58:37.229Z,3.85
2022-10-31T23:01:08.440Z,3.65
2022-10-31T23:03:36.842Z,4.15
2022-10-31T23:06:06.104Z,4.32
2022-10-31T23:08:36.519Z,4.10
2022-10-31T23:11:05.259Z,4.18
2022-10-31T23:13:47.446Z,3.92
2022-10-31T23:16:15.894Z,4.80
2022-10-31T23:18:50.223Z,4.25
2022-10-31T23:24:14.731Z,4.90
2022-10-31T23:27:01.169Z,4.60
2022-10-31T23:29:31.519Z,4.13
2022-10-31T23:31:59.966Z,4.45
2022-10-31T23:34:28.643Z,4.45
2022-10-31T23:37:01.311Z,4.07
2022-10-31T23:45:46.665Z,4.93
2022-10-31T23:48:33.262Z,4.25
2022-10-31T23:51:01.891Z,4.80
2022-10-31T23:53:30.560Z,5.10
2022-10-31T23:56:00.594Z,4.32
2022-10-31T23:58:29.009Z,4.63
